KBJCKSBS

Guest
Details From KBJC - Rocky Mountain Metropolitan Airport
To KSBS - STEAMBOAT SPRINGS BOB ADAMS FLD
Flight Number -
Tags generated
Created
Modified
Stats Distance 88 nm / 163 km
Max Altitude 300 ft / 91 m
Waypoints 3
Social Downloads 1
Likes 0
Share VATSIM

Download

Looking for another format? Having issues loading an existing format? Contact us
Advertisement - Login to hide

Notes

Basic altitude profile: - Ascent Rate: 2000ft/min - Ascent Speed: 200kts - Cruise Altitude: 18000ft - Cruise Speed: 220kts - Descent Rate: 1500ft/min - Descent Speed: 180kts Options: - Use NATs: yes - Use PACOTS: yes - Use low airways: yes - Use high airways: yes

Route

KBJC BJC KSBS

ID Type Via Altitude Latitude Longitude Leg Dist Tot Dist Heading (true) Name
O KBJC APT - 0 ft / 0 m 39.90902˚ -105.11697˚ - 0 nm - Rocky Mountain Metropolitan Airport
BJC VOR - 300 ft / 91 m 39.91303˚ -105.13903˚ 1 nm 1 nm 283° / 283° JEFFCO VOR-DME
O KSBS APT - 0 ft / 0 m 40.51626˚ -106.86630˚ 87 nm 88 nm 295° / 294° STEAMBOAT SPRINGS BOB ADAMS FLD

Altitude Profile

Advertisement - Login to hide

KBJC

Details ICAO KBJC (BJC)
Name Rocky Mountain Metropolitan Airport
Region United States
Timezone America/Denver (UTC-6.0)
Stats Elevation 5,670 ft / 1,728 m (AMSL)
Location 39.909018° -105.116968°
Runways 3
Magnetic Variation 8.253° E

METAR

KBJC 230045Z 32011KT 50SM BKN110 19/09 A2991 RMK TS NW MOV NE

Decode

TAF

KBJC 230024Z 2300/2324 01010KT P6SM VCTS SCT080CB BKN120 FM230200 34012KT P6SM SCT090 SCT140 BKN200 FM230500 28006KT P6SM FEW140 FM231800 18008KT P6SM SCT120

Decode

Departure Runways

ID Width Length Bearing (true) Bearing (mag) Surface Threshold Offset Overrun Length
02 75 ft / 23 m 3,601 ft / 1,098 m 34.18° 25.93° Asphalt 0 ft / 0 m 0 ft / 0 m
11L 100 ft / 30 m 8,990 ft / 2,740 m 124.39° 116.14° Asphalt 0 ft / 0 m 0 ft / 0 m
11R 75 ft / 23 m 6,995 ft / 2,132 m 124.39° 116.14° Asphalt 0 ft / 0 m 0 ft / 0 m
20 75 ft / 23 m 3,601 ft / 1,098 m 214.18° 205.93° Asphalt 0 ft / 0 m 0 ft / 0 m
29L 75 ft / 23 m 6,995 ft / 2,132 m 304.40° 296.15° Asphalt 0 ft / 0 m 0 ft / 0 m
29R 100 ft / 30 m 8,990 ft / 2,740 m 304.41° 296.16° Asphalt 0 ft / 0 m 0 ft / 0 m

KSBS

Details ICAO KSBS (SBS)
Name STEAMBOAT SPRINGS BOB ADAMS FLD
Region United States
Timezone America/Denver (UTC-6.0)
Stats Elevation 6,878 ft / 2,096 m (AMSL)
Location 40.516258° -106.866302°
Runways 1
Magnetic Variation 9.189° E

METAR

KSBS 230135Z AUTO 00000KT 5SM SCT017 BKN047 OVC050 09/08 A3012 RMK AO1 T00880084

Decode

TAF

Not found

Destination Runways

ID Width Length Bearing (true) Bearing (mag) Surface Threshold Offset Overrun Length
14 100 ft / 30 m 4,454 ft / 1,358 m 152.97° 143.78° Asphalt 0 ft / 0 m 0 ft / 0 m
32 100 ft / 30 m 4,454 ft / 1,358 m 332.97° 323.78° Asphalt 600 ft / 183 m 0 ft / 0 m